Hlavní strana
METAR-TAF:

METAR-TAF

Letiště :

Kuusamo, Finsko

zeměpisná šířka: 65-58N, zeměpisná délka: 029-11E, výška: 262 m

Aktuální stav počasí

Zpráva byla vytvořena před 21 hodinami a 46 minutami, v 23:50 UTC
vítr z různých směrů 1 kt
Teplota 8°C
Vlhkost vzduchu 93%
Tlak 1002 hPa
Viditelnost 10 km a více
Žádná oblačnost pod 1500 m, nevyskytují se cumulonimby.

METAR: EFKS 202350Z AUTO VRB01KT CAVOK 08/07 Q1002

Čas: 00:36 (21:36 UTC)


TAF: chybějící

Stav a předpovědi počasí z více než 4 000 letišť (zprávy METAR a TAF).

Červené a žluté tečky na mapě představují dostupné meteorologické stanice.

Když kurzor umístíte na tečku, zobrazí se název stanice.

Pak kliknutím zobrazíte stav a předpověď počasí.

Chcete-li změnit mapu, kliknutím na zelené tlačítko se znaménkem +mapu přiblížíte, kliknutím na zelené tlačítko se znaménkem – mapu oddálíte a kliknutím na zelené šipky přejdete na sousední mapy.


METAR-TAF: